• Join FlightAware (Why Join?)
  • Login
  • US Flag 
09:24PM EDT


 

Airport Tracker/Info


-or-


 

Live Flight TrackerFlight Track Log ✈ EGF4603 ✈ 07-Apr-2013 ✈ KCLT - KLGA

Flight Track Log - Related Links

Times and Time Zones

All times are in EDT time to prevent confusion due to time zone crossing. See the EGF4603 flight status page for this flight to view local times or setup timezone preferences in your user account.

Time Position Orientation Groundspeed Altitude Reporting Facility
EDT Latitude Longitude Course Direction KTS MPH feet Rate Location/Type
04:42PM 35.1969 -80.9356 72° East 164 189 1,500  Level Atlanta Center
04:42PM 35.1767 -80.9314 170° South 154 177 2,500 1,620 Climbing FAA TRACON SMA TRACON (SMA)
04:43PM 35.1611 -80.9286 172° South 180 207 2,800 1,380 Climbing FAA TRACON SMA TRACON (SMA)
04:43PM 35.1439 -80.9164 150° Southeast 223 257 3,400 2,220 Climbing FAA TRACON SMA TRACON (SMA)
04:43PM 35.1236 -80.8958 140° Southeast 255 293 4,300 2,580 Climbing FAA TRACON SMA TRACON (SMA)
04:44PM 35.1325 -80.6117 29° Northeast  Level FlightAware Approximate
04:44PM 35.1078 -80.8775 137° Southeast 255 293 5,200  Level FAA TRACON SMA TRACON (SMA)
04:44PM 35.0953 -80.8544 124° Southeast 280 322 6,000 2,700 Climbing FAA TRACON SMA TRACON (SMA)
04:44PM 35.0933 -80.8197 94° East 295 339 7,000 2,700 Climbing FAA TRACON SMA TRACON (SMA)
04:45PM 35.2355 -80.5414 30° Northeast  Level FlightAware Approximate
04:45PM 35.0969 -80.7878 82° East 281 323 7,800  Level FAA TRACON SMA TRACON (SMA)
04:45PM 35.1053 -80.7592 70° East 313 360 8,100 1,920 Climbing FAA TRACON SMA TRACON (SMA)
04:45PM 35.1231 -80.7269 56° Northeast 293 337 9,100 2,400 Climbing FAA TRACON SMA TRACON (SMA)
04:46PM 35.3270 -80.4667 North  Level FlightAware Approximate
04:46PM 35.1381 -80.7006 55° Northeast 308 354 9,700  Level FAA TRACON SMA TRACON (SMA)
04:46PM 35.1539 -80.6728 55° Northeast 322 371 10,400 1,800 Climbing FAA TRACON SMA TRACON (SMA)
04:46PM 35.1739 -80.6361 56° Northeast 343 395 10,900 1,800 Climbing FAA TRACON SMA TRACON (SMA)
04:47PM 35.3677 -80.3366 72° East  Level FlightAware Approximate
04:47PM 35.1908 -80.6047 57° Northeast 355 409 11,600  Level FAA TRACON SMA TRACON (SMA)
04:47PM 35.2075 -80.5725 58° Northeast 357 411 12,500 2,460 Climbing FAA TRACON SMA TRACON (SMA)
04:47PM 35.2292 -80.5333 56° Northeast 362 417 13,300 2,220 Climbing FAA TRACON SMA TRACON (SMA)
04:48PM 35.2467 -80.5011 56° Northeast 367 422 14,000 1,560 Climbing FAA TRACON SMA TRACON (SMA)
04:48PM 35.2642 -80.4683 57° Northeast 374 430 14,400 1,200 Climbing FAA TRACON SMA TRACON (SMA)
04:48PM 35.2872 -80.4247 57° Northeast 397 457 14,800 1,020 Climbing FAA TRACON SMA TRACON (SMA)
04:49PM 35.3064 -80.3881 57° Northeast 409 471 15,100 900 Climbing FAA TRACON SMA TRACON (SMA)
04:49PM 35.3264 -80.3511 56° Northeast 420 483 15,400 1,020 Climbing FAA TRACON SMA TRACON (SMA)
04:49PM 35.3517 -80.3031 57° Northeast 432 497 15,800 1,380 Climbing FAA TRACON SMA TRACON (SMA)
04:50PM 35.3728 -80.2644 56° Northeast 443 510 16,300 1,440 Climbing FAA TRACON SMA TRACON (SMA)
04:50PM 35.3928 -80.2256 58° Northeast 441 507 16,800 1,800 Climbing FAA TRACON SMA TRACON (SMA)
04:50PM 35.4183 -80.1761 58° Northeast 443 510 17,500 1,620 Climbing FAA TRACON SMA TRACON (SMA)
04:51PM 35.4342 -80.1328 66° East 459 528 17,900 1,260 Climbing FAA TRACON SMA TRACON (SMA)
04:51PM 35.4472 -80.0881 70° East 453 521 18,400 1,620 Climbing FAA TRACON SMA TRACON (SMA)
04:51PM 35.4622 -80.0314 72° East 457 526 19,000 1,800 Climbing FAA TRACON SMA TRACON (SMA)
04:52PM 35.4739 -79.9856 73° East 456 525 19,600 1,680 Climbing FAA TRACON SMA TRACON (SMA)
04:52PM 35.4856 -79.9394 73° East 458 527 20,100 1,620 Climbing FAA TRACON SMA TRACON (SMA)
04:52PM 35.5003 -79.8819 73° East 459 528 20,700 1,260 Climbing FAA TRACON SMA TRACON (SMA)
04:53PM 35.5061 -79.8589 73° East 460 529 21,000 300 Climbing FAA TRACON SMA TRACON (SMA)
04:53PM 35.5061 -79.8589 39° Northeast 460 529 21,000 1,680 Level FAA TRACON SMA TRACON (SMA)
04:54PM 35.5808 -79.5686 72° East 455 524 24,000 1,980 Climbing Washington Center
04:55PM 35.6189 -79.4297 71° East 468 539 25,300 1,380 Climbing Washington Center
04:56PM 35.6711 -79.2917 65° Northeast 462 532 26,800 1,380 Climbing Washington Center
04:57PM 35.7300 -79.1436 64° Northeast 462 532 28,100 1,260 Climbing Washington Center
04:58PM 35.7903 -79.0003 63° Northeast 467 537 29,400 1,200 Climbing Washington Center
04:59PM 35.8489 -78.8517 64° Northeast 472 543 30,500 1,020 Climbing Washington Center
05:00PM 35.9356 -78.7319 48° Northeast 472 543 31,500 900 Climbing Washington Center
05:01PM 36.0442 -78.6386 35° Northeast 459 528 32,300 240 Climbing Washington Center
05:02PM 36.1511 -78.5347 38° Northeast 475 547 32,000 -180 Descending Washington Center
05:03PM 36.2644 -78.4256 38° Northeast 496 571 32,000  Level Washington Center
05:04PM 36.3775 -78.3164 38° Northeast 507 583 32,000  Level Washington Center
05:05PM 36.4883 -78.2092 38° Northeast 507 583 32,000  Level Washington Center
05:06PM 36.6119 -78.0864 39° Northeast 507 583 32,000  Level Washington Center
05:07PM 36.7228 -77.9758 39° Northeast 507 583 32,000  Level Washington Center
05:08PM 36.8333 -77.8653 39° Northeast 507 583 32,000  Level Washington Center
05:09PM 36.9461 -77.7592 37° Northeast 507 583 32,000  Level Washington Center
05:10PM 37.0586 -77.6453 39° Northeast 507 583 32,000  Level Washington Center
05:11PM 37.1708 -77.5364 38° Northeast 507 583 32,000  Level Washington Center
05:12PM 37.2853 -77.4217 39° Northeast 507 583 32,000  Level Washington Center
05:13PM 37.3956 -77.3119 38° Northeast 507 583 32,000  Level Washington Center
05:14PM 37.5097 -77.1992 38° Northeast 507 583 32,000  Level Washington Center
05:15PM 37.6217 -77.0836 39° Northeast 512 589 32,000  Level Washington Center
05:16PM 37.7336 -76.9678 39° Northeast 512 589 32,000  Level Washington Center
05:17PM 37.8453 -76.8542 39° Northeast 512 589 32,000  Level Washington Center
05:18PM 37.9592 -76.7375 39° Northeast 517 595 32,000  Level Washington Center
05:19PM 38.0708 -76.6231 39° Northeast 517 595 32,000  Level Washington Center
05:20PM 38.1822 -76.5083 39° Northeast 517 595 32,000  Level Washington Center
05:21PM 38.2956 -76.3933 39° Northeast 522 601 32,000 -180 Level Washington Center
05:22PM 38.4150 -76.2858 35° Northeast 522 601 31,700 -840 Descending Washington Center
05:23PM 38.5325 -76.1783 36° Northeast 517 595 30,400 -1,260 Descending Washington Center
05:24PM 38.6331 -76.0833 36° Northeast 512 589 29,200 -1,320 Descending Washington Center
05:25PM 38.7417 -75.9828 36° Northeast 500 575 27,800 -1,140 Descending Washington Center
05:26PM 38.8483 -75.8847 36° Northeast 480 552 27,000 -420 Descending Washington Center
05:27PM 38.9528 -75.7839 37° Northeast 475 547 27,000  Level Washington Center
05:28PM 39.0614 -75.6825 36° Northeast 475 547 27,000  Level Washington Center
05:29PM 39.1656 -75.5808 37° Northeast 475 547 27,000  Level Washington Center
05:30PM 39.2739 -75.4817 35° Northeast 475 547 27,000 -720 Level Washington Center
05:31PM 39.3800 -75.3875 34° Northeast 469 540 25,600 -1,800 Descending Washington Center
05:32PM 39.4861 -75.2931 34° Northeast 464 534 23,400 -2,220 Descending Washington Center
05:33PM 39.5858 -75.2011 35° Northeast 457 526 21,200 -2,160 Descending Washington Center
05:34PM 39.6792 -75.1117 36° Northeast 424 488 19,100 -2,100 Descending Washington Center
05:35PM 39.7831 -75.0244 33° Northeast 410 472 17,100 -1,920 Descending Washington Center
05:36PM 39.8661 -74.9481 35° Northeast 405 466 15,300 -1,860 Descending Washington Center
05:37PM 39.9611 -74.8444 40° Northeast 400 460 13,400 -1,980 Descending Washington Center
05:39PM 40.0500 -74.7167 48° Northeast 396 456 10,900 -1,560 Descending New York TRACON
05:40PM 40.1333 -74.6167 43° Northeast 382 440 10,000 -480 Descending New York TRACON
05:41PM 40.2000 -74.5000 53° Northeast 381 438 10,000  Level New York TRACON
05:42PM 40.2667 -74.4167 44° Northeast 376 433 10,000 -120 Level New York TRACON
05:43PM 40.3333 -74.3167 49° Northeast 329 379 9,800 -720 Descending New York TRACON
05:44PM 40.4000 -74.2500 37° Northeast 315 362 8,600 -1,020 Descending New York TRACON
05:45PM 40.4667 -74.1667 44° Northeast 310 357 7,800 -1,020 Descending New York TRACON
05:46PM 40.5333 -74.0833 44° Northeast 302 348 6,600 -1,200 Descending New York TRACON
05:47PM 40.6000 -74.0333 30° Northeast 290 334 5,400 -1,200 Descending New York TRACON
05:48PM 40.6833 -74.0333 360° North 276 318 4,200 -720 Descending New York TRACON
05:49PM 40.7500 -74.0167 11° North 282 325 4,000 -120 Descending New York TRACON
05:50PM 40.8167 -73.9667 30° Northeast 291 335 4,000 -420 Level New York TRACON
05:51PM 40.8833 -73.9000 37° Northeast 294 338 3,200 -840 Descending New York TRACON